Terminal Aerodrome Forecast
Issued by NWS Caribou, ME

Home | Current Version | Previous Version | Text Only | Print | Product List | Glossary On
Versions: 1 2 3 4 5 6 7 8 9 10 11 12 13 14 15 16
000
FTUS41 KCAR 012348
TAFBGR
TAF
KBGR 012348Z 0200/0224 29007KT P6SM SCT070
     FM020900 06004KT P6SM OVC045
     FM021500 06007KT 2SM -SN OVC015
     FM021600 06009KT 3/4SM -SN OVC007
     FM021900 05012G22KT 1/2SM SN OVC003
     FM022100 05015G25KT 1/2SM SN BLSN OVC003=

USA.gov is the U.S. government's official web portal to all federal, state and local government web resources and services.